UP1225 USMM-UACC
Flight info
| Callsign | UP1225 |
|---|---|
| Flight time | 2h 13m |
| Altitude | 39000 |
| Route | DIGLU N990 ML/K0813F400 N990 DAKIN/K0807F390 M75 OLGAS |
| Aircraft | B736/M-SDE2E3FGHIRWXY/LB1 |
Departure
| Time | 2026-04-30 17:47 |
|---|---|
| Airport | Nadym Airport (USMM) |
Arrival
| Time | 2026-04-30 20:00 |
|---|---|
| Airport | Nursultan Nazarbayev International Airport (UACC) |
| Time | Latitude | Longitude | Altitude | Speed | Heading |
|---|---|---|---|---|---|
| 2026-04-30 17:39 | 65.48057 | 72.69518 | 58 ft | 0 kts | 66° |
| 2026-04-30 17:42 | 65.48134 | 72.69680 | 54 ft | 9 kts | 67° |
| 2026-04-30 17:43 | 65.48271 | 72.69794 | 57 ft | 16 kts | 338° |
| 2026-04-30 17:44 | 65.48661 | 72.69395 | 61 ft | 25 kts | 336° |
| 2026-04-30 17:44 | 65.49149 | 72.68912 | 56 ft | 23 kts | 338° |
| 2026-04-30 17:46 | 65.48335 | 72.69723 | 62 ft | 146 kts | 161° |
| 2026-04-30 17:47 | 65.42900 | 72.73250 | 2653 ft | 225 kts | 199° |
| 2026-04-30 17:48 | 65.36498 | 72.68499 | 6802 ft | 263 kts | 179° |
| 2026-04-30 17:48 | 65.30951 | 72.70159 | 10132 ft | 274 kts | 176° |
| 2026-04-30 17:49 | 65.22341 | 72.72733 | 12957 ft | 333 kts | 176° |
| 2026-04-30 17:50 | 65.12965 | 72.75459 | 16624 ft | 346 kts | 178° |
| 2026-04-30 17:51 | 65.05676 | 72.77549 | 19145 ft | 357 kts | 179° |
| 2026-04-30 17:52 | 64.98145 | 72.79695 | 21388 ft | 369 kts | 180° |
| 2026-04-30 17:53 | 64.85076 | 72.82349 | 24744 ft | 388 kts | 185° |
| 2026-04-30 17:54 | 64.74061 | 72.84406 | 26960 ft | 406 kts | 184° |
| 2026-04-30 17:55 | 64.62566 | 72.86591 | 28972 ft | 422 kts | 184° |
| 2026-04-30 17:56 | 64.50702 | 72.88829 | 30677 ft | 436 kts | 185° |
| 2026-04-30 17:57 | 64.41524 | 72.90548 | 31716 ft | 445 kts | 184° |
| 2026-04-30 17:58 | 64.32279 | 72.92279 | 33083 ft | 443 kts | 183° |
| 2026-04-30 17:59 | 64.19961 | 72.94549 | 34577 ft | 444 kts | 182° |
| 2026-04-30 18:00 | 64.07642 | 72.96798 | 35779 ft | 445 kts | 182° |
| 2026-04-30 18:00 | 63.98361 | 72.98479 | 36593 ft | 447 kts | 182° |
| 2026-04-30 18:01 | 63.92159 | 72.99597 | 37134 ft | 447 kts | 182° |
| 2026-04-30 18:02 | 63.82818 | 73.01276 | 37930 ft | 448 kts | 181° |
| 2026-04-30 18:02 | 63.73510 | 73.02940 | 38665 ft | 450 kts | 181° |
| 2026-04-30 18:03 | 63.64141 | 73.04603 | 39089 ft | 450 kts | 181° |
| 2026-04-30 18:04 | 63.54798 | 73.06254 | 39132 ft | 449 kts | 181° |
| 2026-04-30 18:06 | 63.29827 | 73.10818 | 39131 ft | 450 kts | 181° |
| 2026-04-30 18:08 | 63.08080 | 73.14744 | 39150 ft | 447 kts | 181° |
| 2026-04-30 18:10 | 62.83485 | 73.19111 | 39157 ft | 440 kts | 182° |
| 2026-04-30 18:11 | 62.62184 | 73.22832 | 39164 ft | 439 kts | 182° |
| 2026-04-30 18:13 | 62.46936 | 73.25462 | 39170 ft | 441 kts | 182° |
| 2026-04-30 18:14 | 62.31661 | 73.28072 | 39174 ft | 442 kts | 182° |
| 2026-04-30 18:15 | 62.14216 | 73.31021 | 39180 ft | 445 kts | 182° |
| 2026-04-30 18:16 | 62.01919 | 73.33081 | 39176 ft | 445 kts | 183° |
| 2026-04-30 18:17 | 61.95750 | 73.34070 | 39184 ft | 444 kts | 184° |
| 2026-04-30 18:18 | 61.86504 | 73.35002 | 39189 ft | 443 kts | 185° |
| 2026-04-30 18:18 | 61.80338 | 73.35584 | 39153 ft | 443 kts | 185° |
| 2026-04-30 18:19 | 61.74190 | 73.36199 | 39183 ft | 442 kts | 185° |
| 2026-04-30 18:19 | 61.68061 | 73.36823 | 39189 ft | 441 kts | 185° |
| 2026-04-30 18:20 | 61.61939 | 73.37444 | 39188 ft | 440 kts | 185° |
| 2026-04-30 18:20 | 61.55829 | 73.38060 | 39186 ft | 439 kts | 185° |
| 2026-04-30 18:21 | 61.49765 | 73.38669 | 39158 ft | 438 kts | 185° |
| 2026-04-30 18:21 | 61.43685 | 73.39277 | 39178 ft | 437 kts | 185° |
| 2026-04-30 18:22 | 61.37614 | 73.39881 | 39187 ft | 436 kts | 185° |
| 2026-04-30 18:22 | 61.28519 | 73.40890 | 39184 ft | 436 kts | 184° |
| 2026-04-30 18:23 | 61.22489 | 73.41656 | 39188 ft | 436 kts | 184° |
| 2026-04-30 18:23 | 61.16430 | 73.42406 | 39194 ft | 436 kts | 184° |
| 2026-04-30 18:24 | 61.07341 | 73.43512 | 39204 ft | 436 kts | 184° |
| 2026-04-30 18:25 | 61.01276 | 73.44256 | 39199 ft | 436 kts | 184° |
| 2026-04-30 18:25 | 60.92183 | 73.45369 | 39207 ft | 436 kts | 184° |
| 2026-04-30 18:26 | 60.83101 | 73.46473 | 39190 ft | 435 kts | 184° |
| 2026-04-30 18:27 | 60.74071 | 73.47563 | 39203 ft | 435 kts | 184° |
| 2026-04-30 18:28 | 60.64970 | 73.48656 | 39202 ft | 435 kts | 184° |
| 2026-04-30 18:28 | 60.55923 | 73.49736 | 39192 ft | 433 kts | 184° |
| 2026-04-30 18:29 | 60.43947 | 73.51160 | 39200 ft | 431 kts | 184° |
| 2026-04-30 18:30 | 60.31998 | 73.52566 | 39205 ft | 429 kts | 184° |
| 2026-04-30 18:31 | 60.23074 | 73.53611 | 39196 ft | 427 kts | 184° |
| 2026-04-30 18:32 | 60.14179 | 73.54645 | 39206 ft | 427 kts | 184° |
| 2026-04-30 18:33 | 60.05324 | 73.55668 | 39204 ft | 427 kts | 184° |
| 2026-04-30 18:33 | 59.96437 | 73.56692 | 39198 ft | 426 kts | 184° |
| 2026-04-30 18:34 | 59.87547 | 73.57710 | 39207 ft | 426 kts | 184° |
| 2026-04-30 18:35 | 59.81619 | 73.58385 | 39207 ft | 427 kts | 184° |
| 2026-04-30 18:35 | 59.75683 | 73.59059 | 39208 ft | 427 kts | 184° |
| 2026-04-30 18:36 | 59.66781 | 73.60066 | 39195 ft | 427 kts | 184° |
| 2026-04-30 18:37 | 59.57884 | 73.61067 | 39205 ft | 427 kts | 184° |
| 2026-04-30 18:37 | 59.51985 | 73.61727 | 39205 ft | 428 kts | 184° |
| 2026-04-30 18:38 | 59.46032 | 73.62391 | 39205 ft | 428 kts | 184° |
| 2026-04-30 18:38 | 59.40072 | 73.63055 | 39194 ft | 428 kts | 184° |
| 2026-04-30 18:39 | 59.34127 | 73.63713 | 39191 ft | 428 kts | 184° |
| 2026-04-30 18:39 | 59.28177 | 73.64371 | 39204 ft | 428 kts | 184° |
| 2026-04-30 18:40 | 59.22264 | 73.65022 | 39201 ft | 428 kts | 184° |
| 2026-04-30 18:40 | 59.16316 | 73.65674 | 39200 ft | 428 kts | 184° |
| 2026-04-30 18:41 | 59.10367 | 73.66325 | 39192 ft | 427 kts | 184° |
| 2026-04-30 18:41 | 59.04424 | 73.66972 | 39197 ft | 428 kts | 184° |
| 2026-04-30 18:42 | 58.98467 | 73.67618 | 39200 ft | 428 kts | 184° |
| 2026-04-30 18:42 | 58.89570 | 73.68580 | 39194 ft | 429 kts | 184° |
| 2026-04-30 18:45 | 58.56581 | 73.72060 | 39142 ft | 434 kts | 184° |
| 2026-04-30 18:46 | 58.50586 | 73.72686 | 39176 ft | 434 kts | 184° |
| 2026-04-30 18:46 | 58.44546 | 73.73313 | 39183 ft | 435 kts | 184° |
| 2026-04-30 18:47 | 58.38493 | 73.73940 | 39183 ft | 436 kts | 184° |
| 2026-04-30 18:47 | 58.32423 | 73.74566 | 39184 ft | 437 kts | 184° |
| 2026-04-30 18:48 | 58.26345 | 73.75192 | 39183 ft | 437 kts | 184° |
| 2026-04-30 18:48 | 58.20313 | 73.75811 | 39190 ft | 437 kts | 184° |
| 2026-04-30 18:49 | 58.14232 | 73.76433 | 39175 ft | 437 kts | 184° |
| 2026-04-30 18:49 | 58.08169 | 73.77050 | 39177 ft | 436 kts | 184° |
| 2026-04-30 18:50 | 58.02119 | 73.77665 | 39180 ft | 435 kts | 184° |
| 2026-04-30 18:50 | 57.96088 | 73.78275 | 39170 ft | 433 kts | 184° |
| 2026-04-30 18:51 | 57.90071 | 73.78880 | 39175 ft | 432 kts | 184° |
| 2026-04-30 18:51 | 57.84100 | 73.79480 | 39177 ft | 432 kts | 184° |
| 2026-04-30 18:52 | 57.78104 | 73.80080 | 39174 ft | 432 kts | 184° |
| 2026-04-30 18:52 | 57.72099 | 73.80637 | 39165 ft | 431 kts | 185° |
| 2026-04-30 18:53 | 57.66110 | 73.81139 | 39148 ft | 430 kts | 185° |
| 2026-04-30 18:53 | 57.60137 | 73.81637 | 39168 ft | 429 kts | 185° |
| 2026-04-30 18:54 | 57.54203 | 73.82136 | 39169 ft | 429 kts | 185° |
| 2026-04-30 18:54 | 57.48227 | 73.82640 | 39161 ft | 429 kts | 185° |
| 2026-04-30 18:55 | 57.42264 | 73.83143 | 39133 ft | 429 kts | 185° |
| 2026-04-30 18:55 | 57.33311 | 73.83895 | 39155 ft | 429 kts | 185° |
| 2026-04-30 18:56 | 57.24404 | 73.84639 | 39156 ft | 429 kts | 185° |
| 2026-04-30 18:57 | 57.15446 | 73.85384 | 39115 ft | 429 kts | 185° |
| 2026-04-30 18:57 | 57.09476 | 73.85880 | 39140 ft | 429 kts | 185° |
| 2026-04-30 18:58 | 57.00550 | 73.86620 | 39144 ft | 425 kts | 185° |
| 2026-04-30 18:59 | 56.91766 | 73.87342 | 39141 ft | 421 kts | 185° |
| 2026-04-30 19:00 | 56.80037 | 73.88292 | 39156 ft | 426 kts | 185° |
| 2026-04-30 19:01 | 56.68067 | 73.89261 | 39139 ft | 431 kts | 185° |
| 2026-04-30 19:02 | 56.59067 | 73.89992 | 39106 ft | 431 kts | 185° |
| 2026-04-30 19:03 | 56.47121 | 73.90951 | 39132 ft | 430 kts | 185° |
| 2026-04-30 19:04 | 56.36155 | 73.91825 | 39131 ft | 430 kts | 185° |
| 2026-04-30 19:05 | 56.24219 | 73.92736 | 39123 ft | 428 kts | 187° |
| 2026-04-30 19:05 | 56.18456 | 73.91193 | 39129 ft | 415 kts | 201° |
| 2026-04-30 19:06 | 56.12861 | 73.88570 | 39123 ft | 415 kts | 201° |
| 2026-04-30 19:06 | 56.04446 | 73.84693 | 39087 ft | 416 kts | 200° |
| 2026-04-30 19:07 | 55.96014 | 73.80897 | 39111 ft | 417 kts | 200° |
| 2026-04-30 19:08 | 55.84723 | 73.75851 | 39113 ft | 419 kts | 200° |
| 2026-04-30 19:09 | 55.76257 | 73.72086 | 39110 ft | 420 kts | 200° |
| 2026-04-30 19:09 | 55.70583 | 73.69571 | 39100 ft | 420 kts | 200° |
| 2026-04-30 19:10 | 55.59211 | 73.64547 | 39107 ft | 421 kts | 201° |
| 2026-04-30 19:11 | 55.50814 | 73.60073 | 39105 ft | 419 kts | 203° |
| 2026-04-30 19:12 | 55.45275 | 73.57070 | 39096 ft | 419 kts | 203° |
| 2026-04-30 19:12 | 55.39694 | 73.54108 | 39088 ft | 418 kts | 202° |
| 2026-04-30 19:13 | 55.28586 | 73.48147 | 39092 ft | 416 kts | 203° |
| 2026-04-30 19:14 | 55.23058 | 73.45126 | 39089 ft | 415 kts | 203° |
| 2026-04-30 19:14 | 55.17535 | 73.42125 | 39053 ft | 415 kts | 203° |
| 2026-04-30 19:15 | 55.12017 | 73.39140 | 39071 ft | 415 kts | 203° |
| 2026-04-30 19:15 | 55.03756 | 73.34687 | 39084 ft | 417 kts | 203° |
| 2026-04-30 19:16 | 54.98213 | 73.31674 | 39076 ft | 416 kts | 206° |
| 2026-04-30 19:16 | 54.93177 | 73.27041 | 39089 ft | 407 kts | 218° |
| 2026-04-30 19:17 | 54.90821 | 73.24307 | 39069 ft | 408 kts | 218° |
| 2026-04-30 19:17 | 54.83718 | 73.16120 | 39070 ft | 409 kts | 218° |
| 2026-04-30 19:18 | 54.76555 | 73.07990 | 39067 ft | 411 kts | 217° |
| 2026-04-30 19:19 | 54.71751 | 73.02567 | 39063 ft | 412 kts | 217° |
| 2026-04-30 19:19 | 54.64566 | 72.94478 | 39056 ft | 413 kts | 217° |
| 2026-04-30 19:20 | 54.59736 | 72.89064 | 39058 ft | 414 kts | 217° |
| 2026-04-30 19:21 | 54.52486 | 72.80971 | 39045 ft | 413 kts | 217° |
| 2026-04-30 19:22 | 54.42854 | 72.70264 | 39040 ft | 413 kts | 217° |
| 2026-04-30 19:23 | 54.28404 | 72.54310 | 39029 ft | 410 kts | 216° |
| 2026-04-30 19:24 | 54.21242 | 72.46451 | 39020 ft | 408 kts | 216° |
| 2026-04-30 19:25 | 54.07949 | 72.37777 | 39012 ft | 419 kts | 195° |
| 2026-04-30 19:26 | 53.96502 | 72.34129 | 39013 ft | 420 kts | 195° |
| 2026-04-30 19:27 | 53.87886 | 72.31308 | 38998 ft | 421 kts | 195° |
| 2026-04-30 19:28 | 53.79243 | 72.28480 | 39001 ft | 422 kts | 195° |
| 2026-04-30 19:29 | 53.67695 | 72.24724 | 38971 ft | 424 kts | 195° |
| 2026-04-30 19:30 | 53.56055 | 72.21039 | 38994 ft | 426 kts | 194° |
| 2026-04-30 19:31 | 53.44360 | 72.17454 | 38997 ft | 427 kts | 194° |
| 2026-04-30 19:31 | 53.35625 | 72.14776 | 38982 ft | 427 kts | 194° |
| 2026-04-30 19:32 | 53.29771 | 72.12986 | 38992 ft | 426 kts | 194° |
| 2026-04-30 19:32 | 53.23968 | 72.11216 | 38989 ft | 426 kts | 194° |
| 2026-04-30 19:33 | 53.18136 | 72.09443 | 38987 ft | 426 kts | 194° |
| 2026-04-30 19:33 | 53.12293 | 72.07672 | 38969 ft | 426 kts | 194° |
| 2026-04-30 19:34 | 53.06463 | 72.05908 | 38986 ft | 426 kts | 194° |
| 2026-04-30 19:35 | 52.97701 | 72.03266 | 38980 ft | 426 kts | 194° |
| 2026-04-30 19:35 | 52.91857 | 72.01503 | 38994 ft | 427 kts | 194° |
| 2026-04-30 19:36 | 52.86052 | 71.99757 | 38963 ft | 425 kts | 194° |
| 2026-04-30 19:36 | 52.77294 | 71.97128 | 37944 ft | 427 kts | 193° |
| 2026-04-30 19:37 | 52.74385 | 71.96259 | 37286 ft | 423 kts | 193° |
| 2026-04-30 19:37 | 52.71496 | 71.95397 | 36595 ft | 421 kts | 193° |
| 2026-04-30 19:37 | 52.68610 | 71.94536 | 35888 ft | 420 kts | 193° |
| 2026-04-30 19:37 | 52.65734 | 71.93679 | 35107 ft | 421 kts | 193° |
| 2026-04-30 19:38 | 52.62854 | 71.92799 | 34423 ft | 419 kts | 193° |
| 2026-04-30 19:38 | 52.60026 | 71.91885 | 33611 ft | 420 kts | 193° |
| 2026-04-30 19:38 | 52.57169 | 71.90941 | 32977 ft | 416 kts | 194° |
| 2026-04-30 19:38 | 52.54348 | 71.90006 | 32347 ft | 412 kts | 193° |
| 2026-04-30 19:39 | 52.51555 | 71.89084 | 31784 ft | 406 kts | 193° |
| 2026-04-30 19:39 | 52.48792 | 71.88176 | 31203 ft | 402 kts | 193° |
| 2026-04-30 19:39 | 52.46059 | 71.87283 | 30660 ft | 398 kts | 193° |
| 2026-04-30 19:39 | 52.43351 | 71.86400 | 30121 ft | 395 kts | 193° |
| 2026-04-30 19:40 | 52.40668 | 71.85528 | 29503 ft | 391 kts | 193° |
| 2026-04-30 19:40 | 52.38013 | 71.84667 | 28962 ft | 385 kts | 193° |
| 2026-04-30 19:40 | 52.35405 | 71.83822 | 28404 ft | 380 kts | 193° |
| 2026-04-30 19:40 | 52.32824 | 71.82987 | 27846 ft | 375 kts | 193° |
| 2026-04-30 19:41 | 52.30276 | 71.82163 | 27321 ft | 371 kts | 193° |
| 2026-04-30 19:41 | 52.27784 | 71.81358 | 26791 ft | 368 kts | 193° |
| 2026-04-30 19:41 | 52.25283 | 71.80551 | 26261 ft | 365 kts | 193° |
| 2026-04-30 19:41 | 52.22798 | 71.79750 | 25743 ft | 362 kts | 193° |
| 2026-04-30 19:42 | 52.20337 | 71.78958 | 25240 ft | 359 kts | 193° |
| 2026-04-30 19:42 | 52.17897 | 71.78173 | 24729 ft | 356 kts | 193° |
| 2026-04-30 19:42 | 52.15470 | 71.77393 | 24230 ft | 354 kts | 193° |
| 2026-04-30 19:42 | 52.13062 | 71.76621 | 23736 ft | 352 kts | 193° |
| 2026-04-30 19:43 | 52.10668 | 71.75854 | 23183 ft | 350 kts | 193° |
| 2026-04-30 19:43 | 52.08277 | 71.75140 | 22645 ft | 347 kts | 189° |
| 2026-04-30 19:43 | 52.05890 | 71.74803 | 22224 ft | 342 kts | 186° |
| 2026-04-30 19:44 | 52.01187 | 71.74308 | 21266 ft | 336 kts | 185° |
| 2026-04-30 19:44 | 51.98888 | 71.74072 | 20791 ft | 334 kts | 185° |
| 2026-04-30 19:44 | 51.96577 | 71.73829 | 20325 ft | 331 kts | 185° |
| 2026-04-30 19:44 | 51.94279 | 71.73583 | 19843 ft | 329 kts | 185° |
| 2026-04-30 19:45 | 51.91999 | 71.73336 | 19373 ft | 328 kts | 185° |
| 2026-04-30 19:45 | 51.89726 | 71.73087 | 18917 ft | 326 kts | 185° |
| 2026-04-30 19:45 | 51.87467 | 71.72838 | 18456 ft | 325 kts | 185° |
| 2026-04-30 19:45 | 51.85213 | 71.72589 | 17950 ft | 323 kts | 185° |
| 2026-04-30 19:46 | 51.82969 | 71.72341 | 17440 ft | 322 kts | 185° |
| 2026-04-30 19:46 | 51.80744 | 71.72096 | 16966 ft | 319 kts | 185° |
| 2026-04-30 19:46 | 51.78561 | 71.71855 | 16498 ft | 317 kts | 185° |
| 2026-04-30 19:46 | 51.76366 | 71.71613 | 16029 ft | 315 kts | 185° |
| 2026-04-30 19:47 | 51.74188 | 71.71372 | 15567 ft | 313 kts | 185° |
| 2026-04-30 19:47 | 51.72753 | 71.71214 | 15266 ft | 311 kts | 185° |
| 2026-04-30 19:47 | 51.69875 | 71.70897 | 14660 ft | 309 kts | 185° |
| 2026-04-30 19:47 | 51.67736 | 71.70662 | 14200 ft | 307 kts | 185° |
| 2026-04-30 19:48 | 51.65608 | 71.70428 | 13755 ft | 306 kts | 184° |
| 2026-04-30 19:48 | 51.63481 | 71.70195 | 13247 ft | 305 kts | 184° |
| 2026-04-30 19:48 | 51.61368 | 71.69963 | 12763 ft | 303 kts | 184° |
| 2026-04-30 19:48 | 51.59268 | 71.69733 | 12301 ft | 301 kts | 184° |
| 2026-04-30 19:49 | 51.57184 | 71.69505 | 11839 ft | 299 kts | 184° |
| 2026-04-30 19:49 | 51.53073 | 71.69056 | 10956 ft | 297 kts | 184° |
| 2026-04-30 19:49 | 51.51017 | 71.68831 | 10521 ft | 295 kts | 184° |
| 2026-04-30 19:50 | 51.49002 | 71.68612 | 10366 ft | 284 kts | 184° |
| 2026-04-30 19:50 | 51.47065 | 71.68401 | 10223 ft | 273 kts | 184° |
| 2026-04-30 19:50 | 51.45203 | 71.68198 | 10099 ft | 263 kts | 184° |
| 2026-04-30 19:50 | 51.43402 | 71.68003 | 9897 ft | 258 kts | 184° |
| 2026-04-30 19:51 | 51.41614 | 71.67808 | 9563 ft | 257 kts | 184° |
| 2026-04-30 19:51 | 51.39837 | 71.67615 | 9231 ft | 255 kts | 184° |
| 2026-04-30 19:51 | 51.38067 | 71.67422 | 8914 ft | 254 kts | 184° |
| 2026-04-30 19:51 | 51.36312 | 71.67232 | 8591 ft | 252 kts | 184° |
| 2026-04-30 19:52 | 51.34586 | 71.67045 | 8283 ft | 251 kts | 184° |
| 2026-04-30 19:52 | 51.32852 | 71.66857 | 7960 ft | 249 kts | 184° |
| 2026-04-30 19:52 | 51.31127 | 71.66670 | 7650 ft | 248 kts | 184° |
| 2026-04-30 19:52 | 51.29404 | 71.66485 | 7336 ft | 247 kts | 183° |
| 2026-04-30 19:53 | 51.27714 | 71.66876 | 6998 ft | 247 kts | 158° |
| 2026-04-30 19:53 | 51.26255 | 71.68331 | 6753 ft | 251 kts | 141° |
| 2026-04-30 19:53 | 51.25401 | 71.69626 | 6570 ft | 250 kts | 137° |
| 2026-04-30 19:53 | 51.24187 | 71.71613 | 6270 ft | 249 kts | 137° |
| 2026-04-30 19:54 | 51.22999 | 71.73558 | 5973 ft | 246 kts | 140° |
| 2026-04-30 19:54 | 51.21518 | 71.74754 | 5659 ft | 239 kts | 174° |
| 2026-04-30 19:54 | 51.19930 | 71.74215 | 5416 ft | 238 kts | 209° |
| 2026-04-30 19:54 | 51.18690 | 71.72506 | 5288 ft | 232 kts | 221° |
| 2026-04-30 19:55 | 51.17579 | 71.70711 | 5225 ft | 222 kts | 221° |
| 2026-04-30 19:55 | 51.16536 | 71.69031 | 5229 ft | 204 kts | 221° |
| 2026-04-30 19:55 | 51.15555 | 71.67470 | 4884 ft | 202 kts | 220° |
| 2026-04-30 19:55 | 51.14522 | 71.65836 | 4298 ft | 213 kts | 221° |
| 2026-04-30 19:56 | 51.13506 | 71.64141 | 4027 ft | 206 kts | 223° |
| 2026-04-30 19:56 | 51.12568 | 71.62540 | 3844 ft | 194 kts | 221° |
| 2026-04-30 19:56 | 51.11606 | 71.61021 | 3400 ft | 195 kts | 217° |
| 2026-04-30 19:56 | 51.10657 | 71.59529 | 3145 ft | 187 kts | 220° |
| 2026-04-30 19:57 | 51.09780 | 71.58086 | 2761 ft | 177 kts | 217° |
| 2026-04-30 19:57 | 51.08913 | 71.56798 | 2471 ft | 166 kts | 214° |
| 2026-04-30 19:57 | 51.08048 | 71.55587 | 2308 ft | 166 kts | 214° |
| 2026-04-30 19:57 | 51.07225 | 71.54306 | 2246 ft | 162 kts | 217° |
| 2026-04-30 19:58 | 51.06477 | 71.53077 | 1979 ft | 147 kts | 216° |
| 2026-04-30 19:58 | 51.05775 | 71.52015 | 1733 ft | 134 kts | 216° |
| 2026-04-30 19:58 | 51.05108 | 71.51067 | 1476 ft | 127 kts | 221° |
| 2026-04-30 19:58 | 51.04485 | 71.50055 | 1416 ft | 129 kts | 220° |
| 2026-04-30 19:59 | 51.03848 | 71.49067 | 1303 ft | 128 kts | 218° |
| 2026-04-30 19:59 | 51.03198 | 71.48099 | 1170 ft | 130 kts | 223° |
| 2026-04-30 19:59 | 51.02092 | 71.46364 | 1163 ft | 65 kts | 224° |
| 2026-04-30 20:00 | 51.01854 | 71.46003 | 1167 ft | 42 kts | 224° |
| 2026-04-30 20:00 | 51.01700 | 71.45744 | 1165 ft | 15 kts | 238° |
| 2026-04-30 20:00 | 51.01728 | 71.45601 | 1164 ft | 15 kts | 320° |
| 2026-04-30 20:00 | 51.01807 | 71.45509 | 1161 ft | 14 kts | 358° |
| 2026-04-30 20:01 | 51.01953 | 71.45685 | 1163 ft | 13 kts | 44° |
| 2026-04-30 20:01 | 51.02017 | 71.45783 | 1163 ft | 13 kts | 44° |
| 2026-04-30 20:01 | 51.02080 | 71.45881 | 1163 ft | 14 kts | 45° |
| 2026-04-30 20:02 | 51.02283 | 71.46203 | 1163 ft | 14 kts | 44° |
| 2026-04-30 20:02 | 51.02354 | 71.46236 | 1161 ft | 12 kts | 330° |
| 2026-04-30 20:03 | 51.02396 | 71.46165 | 1161 ft | 2 kts | 313° |
| 2026-04-30 20:03 | 51.02404 | 71.46153 | 1161 ft | 2 kts | 314° |
| 2026-04-30 20:03 | 51.02431 | 71.46107 | 1160 ft | 8 kts | 313° |
| 2026-04-30 20:03 | 51.02482 | 71.46103 | 1161 ft | 8 kts | 16° |
| 2026-04-30 20:04 | 51.02523 | 71.46155 | 1163 ft | 8 kts | 43° |
| 2026-04-30 20:04 | 51.02562 | 71.46209 | 1163 ft | 7 kts | 27° |
| 2026-04-30 20:04 | 51.02605 | 71.46187 | 1162 ft | 4 kts | 322° |
| 2026-04-30 20:05 | 51.02632 | 71.46154 | 1162 ft | 0 kts | 321° |
| 2026-04-30 20:05 | 51.02634 | 71.46151 | 1162 ft | 0 kts | 321° |